Date,TemperatureHighF,TemperatureAvgF,TemperatureLowF,DewpointHighF,DewpointAvgF,DewpointLowF,HumidityHigh,HumidityAvg,HumidityLow,PressureMaxIn,PressureMinIn,WindSpeedMaxMPH,WindSpeedAvgMPH,GustSpeedMaxMPH,PrecipitationSumIn
2013-2-1,12.8,1.8,-8.4,9.7,-3.6,-13.4,87,78,67,30.43,30.09,20,5,20,0.00
2013-2-2,24.8,14.9,5.8,22.6,10.7,2.3,94,83,69,30.21,29.99,17,4,18,0.00
2013-2-3,23.4,18.6,9.9,20.5,13.8,5.6,89,81,74,30.16,29.85,18,5,18,0.00
2013-2-4,22.2,17.7,12.9,17.4,12.8,9.5,90,81,68,30.08,29.86,12,3,12,0.00
2013-2-5,36.0,21.8,14.3,30.0,18.4,11.2,94,87,76,30.14,29.77,17,3,22,0.00
2013-2-6,37.1,26.8,11.8,33.7,24.0,9.8,95,89,82,30.14,29.90,24,6,28,0.01
2013-2-7,34.3,28.4,23.4,33.0,27.3,21.0,98,95,89,30.22,29.93,17,4,18,0.00
2013-2-8,28.0,25.5,22.5,24.0,22.2,20.0,91,87,82,30.38,30.22,20,5,20,0.00
2013-2-9,31.2,28.3,25.6,29.2,26.3,23.4,95,92,89,30.27,29.89,28,15,28,0.00
2013-2-10,38.5,33.2,28.4,38.5,32.7,27.6,100,98,94,29.89,29.25,27,11,27,0.04
2013-2-11,28.4,24.6,20.9,27.7,21.3,16.5,97,87,80,30.11,29.41,31,9,31,0.00
2013-2-12,37.8,28.2,20.0,31.5,24.1,16.7,91,85,69,30.13,29.86,19,5,20,0.00
2013-2-13,43.3,33.3,24.5,36.8,29.4,22.0,92,86,75,29.86,29.61,16,5,16,0.00
2013-2-14,36.1,29.9,18.2,32.7,25.4,12.3,93,83,68,30.18,29.62,22,5,22,0.00
2013-2-15,22.6,16.0,11.0,13.6,9.5,5.9,85,75,63,30.34,30.18,16,3,16,0.00
2013-2-16,22.8,15.3,11.9,19.0,11.8,8.5,88,85,80,30.32,30.13,11,2,11,0.00
2013-2-17,35.2,25.8,15.9,28.8,21.3,13.5,91,83,74,30.14,29.66,33,14,33,0.00
2013-2-18,35.7,24.1,6.2,32.2,19.7,1.1,90,83,75,29.87,29.57,27,6,32,0.00
2013-2-19,11.3,3.3,-2.2,3.0,-2.7,-7.4,82,76,67,30.44,29.87,24,7,24,0.00
2013-2-20,22.4,8.8,-3.6,11.5,1.8,-8.2,83,74,55,30.52,30.40,11,2,11,0.00
2013-2-21,23.5,17.3,10.5,17.0,11.9,6.5,92,79,67,30.44,29.97,19,5,19,0.00
2013-2-22,30.1,22.3,14.8,27.0,19.5,12.4,94,89,78,29.97,29.86,12,3,12,0.08
2013-2-23,23.2,13.6,7.3,17.6,11.2,4.8,93,90,78,30.00,29.93,11,2,11,0.00
2013-2-24,26.9,18.3,2.4,23.2,15.2,-0.6,93,88,82,30.15,30.00,9,2,9,0.00
2013-2-25,35.9,28.5,23.2,29.0,25.0,20.9,96,87,74,30.14,29.99,7,1,7,0.03
2013-2-26,33.2,28.6,23.4,27.8,25.0,22.0,96,87,79,29.99,29.80,19,4,20,0.00
2013-2-27,33.1,28.5,22.3,27.6,24.7,19.6,89,85,79,29.99,29.80,20,6,20,0.00
2013-2-28,29.7,25.8,21.2,24.8,22.1,18.5,90,86,77,30.19,29.99,15,4,15,0.00